Time;durP1;ratioP1;P1;durP2;ratioP2;P2;SDS_P1;SDS_P2;PMS_P1;PMS_P2;Temp;Humidity;BMP_temperature;BMP_pressure;BME280_temperature;BME280_humidity;BME280_pressure;Samples;Min_cycle;Max_cycle;Signal;HPM_P1;HPM_P2
2021/12/05 00:18:33;;;;;;;0.30;0.30;;;;;;;;;;1853902;76;26870;-34
2021/12/05 00:21:18;;;;;;;0.30;0.30;;;;;;;;;;1847354;76;26776;-35
2021/12/05 00:23:35;;;;;;;0.30;0.30;;;;;;;;;;1836333;76;26844;-35
2021/12/05 00:26:01;;;;;;;0.33;0.33;;;;;;;;;;1850684;76;26330;-34
2021/12/05 00:52:33;;;;;;;0.30;0.30;;;;;;;;;;1865143;76;26281;-35
2021/12/05 01:08:59;;;;;;;0.40;0.40;;;;;;;;;;1847887;76;26400;-33
2021/12/05 01:16:39;;;;;;;0.30;0.30;;;;;;;;;;1843896;76;26378;-33
2021/12/05 01:19:07;;;;;;;0.30;0.30;;;;;;;;;;1853825;76;26230;-33
2021/12/05 01:21:36;;;;;;;0.40;0.40;;;;;;;;;;1864963;76;26301;-33
2021/12/05 01:24:31;;;;;;;0.30;0.30;;;;;;;;;;1843488;76;26745;-33
2021/12/05 01:29:40;;;;;;;0.30;0.30;;;;;;;;;;1863142;76;26265;-34
2021/12/05 01:34:48;;;;;;;0.30;0.30;;;;;;;;;;1826942;76;26734;-35
2021/12/05 01:37:18;;;;;;;0.40;0.40;;;;;;;;;;1833245;76;26297;-34
2021/12/05 01:50:48;;;;;;;0.23;0.23;;;;;;;;;;1848352;76;26786;-34
2021/12/05 01:58:42;;;;;;;0.30;0.30;;;;;;;;;;1846192;76;26274;-35
2021/12/05 02:01:03;;;;;;;0.20;0.20;;;;;;;;;;1845099;76;26307;-34
2021/12/05 02:31:21;;;;;;;0.30;0.30;;;;;;;;;;1847590;76;26397;-34
2021/12/05 02:41:34;;;;;;;0.30;0.30;;;;;;;;;;1848053;76;26277;-34
2021/12/05 02:44:03;;;;;;;0.30;0.30;;;;;;;;;;1850507;76;26296;-34
2021/12/05 02:46:28;;;;;;;0.40;0.40;;;;;;;;;;1860439;76;26802;-35
2021/12/05 02:49:01;;;;;;;0.37;0.37;;;;;;;;;;1858460;76;26283;-35
2021/12/05 02:51:27;;;;;;;0.40;0.40;;;;;;;;;;1849724;76;26825;-34
2021/12/05 02:56:32;;;;;;;0.33;0.33;;;;;;;;;;1847387;76;26618;-35
2021/12/05 02:59:17;;;;;;;0.30;0.30;;;;;;;;;;1841300;76;26297;-34
2021/12/05 03:01:37;;;;;;;0.40;0.40;;;;;;;;;;1836061;76;26329;-34
2021/12/05 03:04:04;;;;;;;0.30;0.30;;;;;;;;;;1840405;76;26343;-34
2021/12/05 03:06:33;;;;;;;0.50;0.50;;;;;;;;;;1844256;76;26269;-34
2021/12/05 03:09:01;;;;;;;0.30;0.30;;;;;;;;;;1855071;76;26291;-34
2021/12/05 03:11:30;;;;;;;0.30;0.30;;;;;;;;;;1847890;76;26331;-34
2021/12/05 03:13:57;;;;;;;0.35;0.35;;;;;;;;;;1836175;76;26772;-34
2021/12/05 03:16:25;;;;;;;0.37;0.37;;;;;;;;;;1851820;76;26300;-34
2021/12/05 03:18:53;;;;;;;0.25;0.25;;;;;;;;;;1835424;76;26792;-34
2021/12/05 03:21:21;;;;;;;0.30;0.30;;;;;;;;;;1852366;76;26293;-35
2021/12/05 03:23:50;;;;;;;0.33;0.33;;;;;;;;;;1853044;76;26806;-35
2021/12/05 03:26:18;;;;;;;0.37;0.37;;;;;;;;;;1852204;76;26655;-34
2021/12/05 03:28:49;;;;;;;0.40;0.40;;;;;;;;;;1844726;76;26268;-34
2021/12/05 03:31:15;;;;;;;0.20;0.20;;;;;;;;;;1856024;76;26339;-35
2021/12/05 03:33:43;;;;;;;0.17;0.17;;;;;;;;;;1855372;76;26237;-35
2021/12/05 03:36:11;;;;;;;0.40;0.40;;;;;;;;;;1846846;76;26263;-35
2021/12/05 03:38:39;;;;;;;0.30;0.30;;;;;;;;;;1851176;76;26299;-34
2021/12/05 03:41:07;;;;;;;0.30;0.30;;;;;;;;;;1851511;76;26370;-34
2021/12/05 03:43:35;;;;;;;0.30;0.30;;;;;;;;;;1848025;76;27702;-34
2021/12/05 03:46:03;;;;;;;0.33;0.33;;;;;;;;;;1838683;76;26315;-34
2021/12/05 03:48:32;;;;;;;0.40;0.40;;;;;;;;;;1852626;76;26257;-34
2021/12/05 03:51:00;;;;;;;0.30;0.30;;;;;;;;;;1857202;76;26578;-34
2021/12/05 03:53:28;;;;;;;0.30;0.30;;;;;;;;;;1849847;76;26827;-34
2021/12/05 03:55:56;;;;;;;0.40;0.40;;;;;;;;;;1860059;76;26212;-34
2021/12/05 03:58:24;;;;;;;0.40;0.40;;;;;;;;;;1845797;76;26237;-34
2021/12/05 04:00:53;;;;;;;0.23;0.23;;;;;;;;;;1848235;76;26307;-35
2021/12/05 04:03:21;;;;;;;0.20;0.20;;;;;;;;;;1855126;75;26706;-34
2021/12/05 04:05:49;;;;;;;0.30;0.30;;;;;;;;;;1870055;76;26360;-35
2021/12/05 04:08:18;;;;;;;0.30;0.30;;;;;;;;;;1862961;76;26716;-35
2021/12/05 04:10:46;;;;;;;0.30;0.30;;;;;;;;;;1862641;76;26372;-34
2021/12/05 04:13:15;;;;;;;0.30;0.30;;;;;;;;;;1856640;76;26358;-35
2021/12/05 04:15:43;;;;;;;0.20;0.20;;;;;;;;;;1873744;76;26240;-35
2021/12/05 04:18:10;;;;;;;0.30;0.30;;;;;;;;;;1863114;76;26250;-35
2021/12/05 04:20:38;;;;;;;0.30;0.30;;;;;;;;;;1860104;76;26335;-35
2021/12/05 04:23:05;;;;;;;0.40;0.40;;;;;;;;;;1874141;75;26826;-35
2021/12/05 04:25:37;;;;;;;0.30;0.30;;;;;;;;;;1867064;76;26304;-35
2021/12/05 04:28:06;;;;;;;0.40;0.30;;;;;;;;;;1849901;76;26275;-35
2021/12/05 04:30:34;;;;;;;0.28;0.28;;;;;;;;;;1865975;76;26548;-35
2021/12/05 04:33:01;;;;;;;0.40;0.40;;;;;;;;;;1857386;76;26804;-35
2021/12/05 04:35:29;;;;;;;0.30;0.30;;;;;;;;;;1859756;76;26293;-34
2021/12/05 04:37:56;;;;;;;0.37;0.37;;;;;;;;;;1865701;75;26342;-34
2021/12/05 04:40:23;;;;;;;0.40;0.40;;;;;;;;;;1871896;75;26353;-34
2021/12/05 04:42:51;;;;;;;0.30;0.30;;;;;;;;;;1862038;75;26202;-35
2021/12/05 04:45:20;;;;;;;0.47;0.47;;;;;;;;;;1862725;76;26289;-34
2021/12/05 04:47:48;;;;;;;0.35;0.35;;;;;;;;;;1863961;76;26730;-37
2021/12/05 04:50:16;;;;;;;0.33;0.33;;;;;;;;;;1879874;75;26833;-34
2021/12/05 04:52:44;;;;;;;0.30;0.30;;;;;;;;;;1866804;75;26353;-35
2021/12/05 04:55:12;;;;;;;0.30;0.30;;;;;;;;;;1858100;76;26768;-35
2021/12/05 04:57:41;;;;;;;0.40;0.40;;;;;;;;;;1860803;76;26778;-34
2021/12/05 05:00:12;;;;;;;0.30;0.30;;;;;;;;;;1862509;76;26367;-34
2021/12/05 05:02:39;;;;;;;0.30;0.30;;;;;;;;;;1864971;75;26611;-34
2021/12/05 05:05:08;;;;;;;0.40;0.40;;;;;;;;;;1812976;75;26286;-35
2021/12/05 05:07:37;;;;;;;0.20;0.20;;;;;;;;;;1801838;78;26755;-35
2021/12/05 05:10:09;;;;;;;0.30;0.30;;;;;;;;;;1792958;78;26718;-35
2021/12/05 05:12:37;;;;;;;0.30;0.30;;;;;;;;;;1800491;78;26297;-34
2021/12/05 05:15:05;;;;;;;0.35;0.35;;;;;;;;;;1801480;78;26764;-34
2021/12/05 05:17:34;;;;;;;0.40;0.40;;;;;;;;;;1796700;78;26761;-34
2021/12/05 05:20:08;;;;;;;0.30;0.30;;;;;;;;;;1796312;78;26344;-34
2021/12/05 05:23:02;;;;;;;0.70;0.37;;;;;;;;;;1793926;78;26332;-34
2021/12/05 05:46:36;;;;;;;0.17;0.17;;;;;;;;;;1801287;78;26769;-34
2021/12/05 05:49:14;;;;;;;0.35;0.35;;;;;;;;;;1786741;78;26278;-34
2021/12/05 05:51:28;;;;;;;0.30;0.30;;;;;;;;;;1807184;78;26358;-34
2021/12/05 05:53:55;;;;;;;0.50;0.50;;;;;;;;;;1805529;78;26632;-35
2021/12/05 05:56:26;;;;;;;0.50;0.50;;;;;;;;;;1791659;77;26282;-34
2021/12/05 05:58:58;;;;;;;0.30;0.30;;;;;;;;;;1794789;78;26320;-35
2021/12/05 06:01:38;;;;;;;0.40;0.40;;;;;;;;;;1791741;78;26320;-34
2021/12/05 06:03:50;;;;;;;0.40;0.40;;;;;;;;;;1785460;76;26411;-35
2021/12/05 06:06:18;;;;;;;0.40;0.40;;;;;;;;;;1865862;76;26315;-34
2021/12/05 06:08:45;;;;;;;0.50;0.50;;;;;;;;;;1850614;76;26277;-35
2021/12/05 06:11:14;;;;;;;0.50;0.50;;;;;;;;;;1847558;76;26206;-34
2021/12/05 06:13:42;;;;;;;0.37;0.37;;;;;;;;;;1840218;76;26306;-35
2021/12/05 06:16:10;;;;;;;0.40;0.40;;;;;;;;;;1849441;76;26375;-34
2021/12/05 06:18:38;;;;;;;0.30;0.30;;;;;;;;;;1834442;76;26258;-34
2021/12/05 06:21:07;;;;;;;0.40;0.40;;;;;;;;;;1845624;76;26219;-34
2021/12/05 06:23:34;;;;;;;0.30;0.30;;;;;;;;;;1832025;76;26739;-34
2021/12/05 06:26:03;;;;;;;0.30;0.30;;;;;;;;;;1837150;76;26326;-36
2021/12/05 06:28:38;;;;;;;0.30;0.30;;;;;;;;;;1835408;76;26359;-34
2021/12/05 06:31:17;;;;;;;0.40;0.40;;;;;;;;;;1845679;76;26235;-35
2021/12/05 06:39:22;;;;;;;0.30;0.30;;;;;;;;;;1855298;76;26274;-34
2021/12/05 06:46:50;;;;;;;0.50;0.50;;;;;;;;;;1855210;76;26395;-35
2021/12/05 06:49:18;;;;;;;0.40;0.40;;;;;;;;;;1846540;76;26356;-34
2021/12/05 06:51:45;;;;;;;0.37;0.37;;;;;;;;;;1846875;76;26721;-34
2021/12/05 06:54:12;;;;;;;0.30;0.30;;;;;;;;;;1854019;76;26717;-34
2021/12/05 06:56:40;;;;;;;0.30;0.30;;;;;;;;;;1840016;76;26269;-35
2021/12/05 06:59:07;;;;;;;0.40;0.40;;;;;;;;;;1835779;76;26387;-34
2021/12/05 07:01:34;;;;;;;0.30;0.30;;;;;;;;;;1843745;77;26295;-35
2021/12/05 07:04:10;;;;;;;0.40;0.40;;;;;;;;;;1851435;75;26322;-35
2021/12/05 07:06:32;;;;;;;0.40;0.40;;;;;;;;;;1849853;76;26285;-34
2021/12/05 07:09:02;;;;;;;0.40;0.40;;;;;;;;;;1849900;76;26783;-34
2021/12/05 07:11:51;;;;;;;0.40;0.40;;;;;;;;;;1853387;76;26285;-34
2021/12/05 07:17:07;;;;;;;0.30;0.30;;;;;;;;;;1849880;76;26351;-34
2021/12/05 07:19:45;;;;;;;0.40;0.40;;;;;;;;;;1853477;76;26330;-34
2021/12/05 07:22:14;;;;;;;0.30;0.30;;;;;;;;;;1838583;76;26366;-34
2021/12/05 07:24:40;;;;;;;0.30;0.30;;;;;;;;;;1852621;76;26280;-35
2021/12/05 07:40:28;;;;;;;0.30;0.30;;;;;;;;;;1856015;76;26711;-34
2021/12/05 07:42:56;;;;;;;0.42;0.42;;;;;;;;;;1853992;76;26333;-35
2021/12/05 07:45:31;;;;;;;0.35;0.35;;;;;;;;;;1851188;76;26311;-34
2021/12/05 07:47:55;;;;;;;0.30;0.30;;;;;;;;;;1853238;76;26336;-34
2021/12/05 07:50:38;;;;;;;0.30;0.30;;;;;;;;;;1851348;76;26289;-34
2021/12/05 07:52:55;;;;;;;0.30;0.30;;;;;;;;;;1864026;76;26801;-34
2021/12/05 07:55:35;;;;;;;0.30;0.30;;;;;;;;;;1861213;76;26402;-34
2021/12/05 08:00:56;;;;;;;0.47;0.47;;;;;;;;;;1866618;76;26357;-34
2021/12/05 08:14:34;;;;;;;0.30;0.30;;;;;;;;;;1841150;76;26311;-34
2021/12/05 08:16:52;;;;;;;0.40;0.40;;;;;;;;;;1839478;76;26303;-34
2021/12/05 08:19:20;;;;;;;0.30;0.30;;;;;;;;;;1841258;76;26367;-34
2021/12/05 08:21:55;;;;;;;0.30;0.30;;;;;;;;;;1841020;76;26245;-34
2021/12/05 08:24:17;;;;;;;0.30;0.30;;;;;;;;;;1852189;76;26257;-34
2021/12/05 08:26:48;;;;;;;0.30;0.30;;;;;;;;;;1847350;76;26330;-34
2021/12/05 08:29:17;;;;;;;0.40;0.40;;;;;;;;;;1846791;76;26261;-34
2021/12/05 08:35:15;;;;;;;0.33;0.33;;;;;;;;;;1858006;76;26346;-34
2021/12/05 08:37:24;;;;;;;0.47;0.47;;;;;;;;;;1819749;76;26273;-35
2021/12/05 09:38:39;;;;;;;0.50;0.50;;;;;;;;;;1859507;76;26761;-35
2021/12/05 10:15:11;;;;;;;0.50;0.50;;;;;;;;;;1856077;76;26677;-33
2021/12/05 10:17:46;;;;;;;0.30;0.30;;;;;;;;;;1843535;76;26275;-33
2021/12/05 10:20:27;;;;;;;0.42;0.42;;;;;;;;;;1852842;76;26262;-34
2021/12/05 10:34:07;;;;;;;0.37;0.37;;;;;;;;;;1851505;76;26828;-36
2021/12/05 10:36:32;;;;;;;0.35;0.35;;;;;;;;;;1856722;76;26380;-34
2021/12/05 10:39:05;;;;;;;0.30;0.30;;;;;;;;;;1860326;76;26281;-35
2021/12/05 10:44:04;;;;;;;0.50;0.50;;;;;;;;;;1854480;76;26210;-33
2021/12/05 10:46:32;;;;;;;0.50;0.50;;;;;;;;;;1854021;76;26293;-33
2021/12/05 10:49:04;;;;;;;0.42;0.42;;;;;;;;;;1854621;76;26289;-33
2021/12/05 10:51:32;;;;;;;0.40;0.40;;;;;;;;;;1857675;76;26353;-33
2021/12/05 10:54:04;;;;;;;0.40;0.40;;;;;;;;;;1855391;76;26299;-32
2021/12/05 10:56:33;;;;;;;0.40;0.40;;;;;;;;;;1843362;77;26223;-34
2021/12/05 10:59:08;;;;;;;0.40;0.40;;;;;;;;;;1853574;76;26316;-34
2021/12/05 11:01:37;;;;;;;0.30;0.30;;;;;;;;;;1856675;76;26313;-34
2021/12/05 11:04:05;;;;;;;0.33;0.33;;;;;;;;;;1854559;75;26336;-34
2021/12/05 11:06:37;;;;;;;0.40;0.40;;;;;;;;;;1847797;76;26808;-34
2021/12/05 11:09:06;;;;;;;0.40;0.40;;;;;;;;;;1862522;76;26591;-34
2021/12/05 11:11:35;;;;;;;0.37;0.37;;;;;;;;;;1865195;76;26310;-34
2021/12/05 11:14:04;;;;;;;0.35;0.35;;;;;;;;;;1857056;76;26221;-34
2021/12/05 11:16:38;;;;;;;0.57;0.57;;;;;;;;;;1858639;76;26308;-34
2021/12/05 11:19:25;;;;;;;0.40;0.40;;;;;;;;;;1855983;76;26284;-34
2021/12/05 11:21:57;;;;;;;0.50;0.50;;;;;;;;;;1855788;76;26249;-35
2021/12/05 11:24:26;;;;;;;0.30;0.30;;;;;;;;;;1854736;76;26240;-34
2021/12/05 11:27:10;;;;;;;0.42;0.42;;;;;;;;;;1860175;76;26249;-34
2021/12/05 11:29:42;;;;;;;0.40;0.40;;;;;;;;;;1855055;76;26308;-34
2021/12/05 11:32:11;;;;;;;0.35;0.35;;;;;;;;;;1858884;76;26337;-34
2021/12/05 11:34:38;;;;;;;0.40;0.40;;;;;;;;;;1859976;76;26201;-35
2021/12/05 11:37:05;;;;;;;0.33;0.33;;;;;;;;;;1858292;76;26261;-35
2021/12/05 11:39:33;;;;;;;0.40;0.40;;;;;;;;;;1854817;76;26753;-34
2021/12/05 11:42:00;;;;;;;0.50;0.50;;;;;;;;;;1858662;76;26277;-34
2021/12/05 11:44:28;;;;;;;0.30;0.30;;;;;;;;;;1856447;76;26311;-34
2021/12/05 11:46:55;;;;;;;0.30;0.30;;;;;;;;;;1860055;76;26721;-34
2021/12/05 11:49:24;;;;;;;0.47;0.47;;;;;;;;;;1858323;76;26831;-34
2021/12/05 11:51:53;;;;;;;0.40;0.40;;;;;;;;;;1860744;76;26376;-34
2021/12/05 11:54:25;;;;;;;0.42;0.42;;;;;;;;;;1846775;76;27293;-34
2021/12/05 11:56:54;;;;;;;0.50;0.50;;;;;;;;;;1842486;76;26297;-34
2021/12/05 11:59:35;;;;;;;0.50;0.50;;;;;;;;;;1858009;76;26338;-34
2021/12/05 12:02:10;;;;;;;0.57;0.57;;;;;;;;;;1858941;76;26218;-34
2021/12/05 12:04:45;;;;;;;0.50;0.50;;;;;;;;;;1844040;76;26323;-34
2021/12/05 12:07:17;;;;;;;0.50;0.50;;;;;;;;;;1839103;76;26891;-34
2021/12/05 12:09:45;;;;;;;0.47;0.47;;;;;;;;;;1844352;76;26253;-34
2021/12/05 12:12:13;;;;;;;0.60;0.60;;;;;;;;;;1846771;76;26281;-34
2021/12/05 12:14:40;;;;;;;0.57;0.57;;;;;;;;;;1853109;76;26736;-34
2021/12/05 12:17:14;;;;;;;0.70;0.70;;;;;;;;;;1852009;76;26224;-34
2021/12/05 12:19:37;;;;;;;0.50;0.50;;;;;;;;;;1848453;76;26333;-34
2021/12/05 12:22:07;;;;;;;0.60;0.60;;;;;;;;;;1840824;76;26368;-34
2021/12/05 12:24:35;;;;;;;0.50;0.50;;;;;;;;;;1848930;76;27054;-34
2021/12/05 12:27:02;;;;;;;0.57;0.57;;;;;;;;;;1845930;76;26261;-34
2021/12/05 12:29:30;;;;;;;0.70;0.70;;;;;;;;;;1862395;76;26659;-34
2021/12/05 12:32:02;;;;;;;0.50;0.50;;;;;;;;;;1857820;76;26285;-34
2021/12/05 12:34:29;;;;;;;0.50;0.50;;;;;;;;;;1846372;76;26343;-34
2021/12/05 12:37:01;;;;;;;0.47;0.47;;;;;;;;;;1841827;76;26785;-34
2021/12/05 12:39:30;;;;;;;0.55;0.55;;;;;;;;;;1858018;76;25592;-34
2021/12/05 12:42:04;;;;;;;0.40;0.40;;;;;;;;;;1848672;76;26298;-34
2021/12/05 12:44:32;;;;;;;0.60;0.60;;;;;;;;;;1851676;76;26287;-34
2021/12/05 12:47:04;;;;;;;0.62;0.62;;;;;;;;;;1857525;76;27098;-34
2021/12/05 12:49:32;;;;;;;0.53;0.53;;;;;;;;;;1851437;76;26738;-34
2021/12/05 12:52:10;;;;;;;0.40;0.40;;;;;;;;;;1848935;76;26265;-34
2021/12/05 12:54:40;;;;;;;0.50;0.50;;;;;;;;;;1861328;76;26376;-34
2021/12/05 12:57:11;;;;;;;0.60;0.60;;;;;;;;;;1844667;76;26292;-34
2021/12/05 12:59:43;;;;;;;0.50;0.50;;;;;;;;;;1835859;76;26289;-34
2021/12/05 13:12:32;;;;;;;0.50;0.50;;;;;;;;;;1845659;76;26720;-34
2021/12/05 13:15:09;;;;;;;0.40;0.40;;;;;;;;;;1852056;76;26315;-33
2021/12/05 13:17:44;;;;;;;0.35;0.35;;;;;;;;;;1837381;76;26290;-33
2021/12/05 13:20:13;;;;;;;0.50;0.50;;;;;;;;;;1845950;76;26366;-34
2021/12/05 13:23:00;;;;;;;0.40;0.40;;;;;;;;;;1841884;76;26342;-34
2021/12/05 13:25:28;;;;;;;0.30;0.30;;;;;;;;;;1852429;76;26280;-34
2021/12/05 13:27:57;;;;;;;0.37;0.37;;;;;;;;;;1857972;76;26256;-34
2021/12/05 13:30:28;;;;;;;0.40;0.40;;;;;;;;;;1854082;76;26406;-34
2021/12/05 13:33:14;;;;;;;0.40;0.40;;;;;;;;;;1854693;76;26308;-34
2021/12/05 13:35:43;;;;;;;0.50;0.50;;;;;;;;;;1869327;76;26354;-34
2021/12/05 13:38:28;;;;;;;0.50;0.50;;;;;;;;;;1861017;76;26268;-34
2021/12/05 13:40:56;;;;;;;0.40;0.40;;;;;;;;;;1854363;76;26272;-34
2021/12/05 13:43:28;;;;;;;0.40;0.40;;;;;;;;;;1850294;76;26960;-34
2021/12/05 13:45:57;;;;;;;0.30;0.30;;;;;;;;;;1857771;76;26230;-35
2021/12/05 13:48:26;;;;;;;0.40;0.40;;;;;;;;;;1849507;76;26492;-34
2021/12/05 13:50:56;;;;;;;0.30;0.30;;;;;;;;;;1853942;76;26416;-34
2021/12/05 13:53:28;;;;;;;0.30;0.30;;;;;;;;;;1849356;76;26737;-34
2021/12/05 13:56:02;;;;;;;0.40;0.40;;;;;;;;;;1869859;76;26269;-34
2021/12/05 13:58:41;;;;;;;0.40;0.40;;;;;;;;;;1855622;76;26709;-34
2021/12/05 14:01:11;;;;;;;0.30;0.30;;;;;;;;;;1869045;76;26337;-34
2021/12/05 14:03:51;;;;;;;0.40;0.40;;;;;;;;;;1862603;76;26313;-34
2021/12/05 14:06:29;;;;;;;0.30;0.30;;;;;;;;;;1841762;76;26714;-34
2021/12/05 14:08:58;;;;;;;0.30;0.30;;;;;;;;;;1855533;76;27294;-34
2021/12/05 14:11:27;;;;;;;0.30;0.30;;;;;;;;;;1850877;76;26269;-34
2021/12/05 14:13:54;;;;;;;0.40;0.40;;;;;;;;;;1860384;76;26365;-34
2021/12/05 14:16:23;;;;;;;0.30;0.30;;;;;;;;;;1859712;76;26736;-34
2021/12/05 14:18:52;;;;;;;0.30;0.30;;;;;;;;;;1857257;76;26934;-34
2021/12/05 14:21:20;;;;;;;0.35;0.35;;;;;;;;;;1866928;76;26709;-34
2021/12/05 14:23:52;;;;;;;0.35;0.35;;;;;;;;;;1857263;76;26792;-34
2021/12/05 14:26:21;;;;;;;0.30;0.30;;;;;;;;;;1851659;76;26336;-34
2021/12/05 14:28:59;;;;;;;0.35;0.35;;;;;;;;;;1857219;76;26271;-34
2021/12/05 14:31:28;;;;;;;0.30;0.30;;;;;;;;;;1863184;76;26025;-34
2021/12/05 14:33:56;;;;;;;0.40;0.40;;;;;;;;;;1855633;76;26785;-34
2021/12/05 14:36:24;;;;;;;0.30;0.30;;;;;;;;;;1867100;76;26268;-34
2021/12/05 14:38:59;;;;;;;0.47;0.28;;;;;;;;;;1853494;76;26289;-34
2021/12/05 14:41:33;;;;;;;0.23;0.23;;;;;;;;;;1814166;76;26267;-35
2021/12/05 14:44:00;;;;;;;0.35;0.35;;;;;;;;;;1861738;76;26335;-34
2021/12/05 14:46:28;;;;;;;0.20;0.20;;;;;;;;;;1857260;76;26274;-34
2021/12/05 14:48:56;;;;;;;0.30;0.30;;;;;;;;;;1855055;76;26571;-34
2021/12/05 14:51:33;;;;;;;0.30;0.30;;;;;;;;;;1850721;76;26273;-34
2021/12/05 14:54:01;;;;;;;0.20;0.20;;;;;;;;;;1860115;76;26286;-34
2021/12/05 14:56:29;;;;;;;0.40;0.40;;;;;;;;;;1857244;76;26327;-34
2021/12/05 14:59:07;;;;;;;0.30;0.30;;;;;;;;;;1853123;76;26653;-34
2021/12/05 15:01:35;;;;;;;0.30;0.30;;;;;;;;;;1859316;76;26305;-34
2021/12/05 15:04:05;;;;;;;0.20;0.20;;;;;;;;;;1858031;75;26363;-34
2021/12/05 15:06:35;;;;;;;0.30;0.30;;;;;;;;;;1855690;76;26317;-34
2021/12/05 15:09:04;;;;;;;0.40;0.40;;;;;;;;;;1859011;76;26621;-34
2021/12/05 15:11:32;;;;;;;0.40;0.40;;;;;;;;;;1861770;76;26720;-34
2021/12/05 15:14:04;;;;;;;0.30;0.30;;;;;;;;;;1853734;76;26266;-34
2021/12/05 15:16:31;;;;;;;0.40;0.40;;;;;;;;;;1851215;76;26349;-34
2021/12/05 15:18:59;;;;;;;0.57;0.57;;;;;;;;;;1858159;76;26320;-34
2021/12/05 15:21:27;;;;;;;0.33;0.33;;;;;;;;;;1855262;76;26271;-34
2021/12/05 15:23:55;;;;;;;0.20;0.20;;;;;;;;;;1855933;76;26621;-34
2021/12/05 15:26:24;;;;;;;0.40;0.40;;;;;;;;;;1851158;76;26343;-34
2021/12/05 15:28:53;;;;;;;0.30;0.30;;;;;;;;;;1858127;76;26414;-34
2021/12/05 15:31:21;;;;;;;0.40;0.40;;;;;;;;;;1857553;76;26812;-34
2021/12/05 15:33:50;;;;;;;0.30;0.30;;;;;;;;;;1860207;76;26734;-34
2021/12/05 15:36:17;;;;;;;0.25;0.25;;;;;;;;;;1859923;76;26968;-34
2021/12/05 15:38:45;;;;;;;0.30;0.30;;;;;;;;;;1863231;76;26889;-34
2021/12/05 15:41:17;;;;;;;0.30;0.30;;;;;;;;;;1857042;76;26271;-34
2021/12/05 15:43:42;;;;;;;0.30;0.30;;;;;;;;;;1856431;76;26359;-34
2021/12/05 15:46:13;;;;;;;0.30;0.30;;;;;;;;;;1860223;76;26290;-34
2021/12/05 15:48:39;;;;;;;0.30;0.30;;;;;;;;;;1859267;76;26312;-34
2021/12/05 15:51:10;;;;;;;0.37;0.37;;;;;;;;;;1870149;76;26253;-34
2021/12/05 15:53:37;;;;;;;0.40;0.40;;;;;;;;;;1857892;76;26321;-34
2021/12/05 15:56:06;;;;;;;0.30;0.30;;;;;;;;;;1862559;76;26651;-34
2021/12/05 15:58:35;;;;;;;0.45;0.45;;;;;;;;;;1857667;76;26283;-34
2021/12/05 16:01:03;;;;;;;0.25;0.25;;;;;;;;;;1863238;76;26281;-34
2021/12/05 16:03:41;;;;;;;0.30;0.30;;;;;;;;;;1853931;76;26374;-34
2021/12/05 16:06:09;;;;;;;0.25;0.25;;;;;;;;;;1866502;76;26272;-34
2021/12/05 16:08:36;;;;;;;0.33;0.33;;;;;;;;;;1860137;76;26248;-33
2021/12/05 16:11:05;;;;;;;0.40;0.40;;;;;;;;;;1865526;75;26324;-34
2021/12/05 16:13:38;;;;;;;0.40;0.40;;;;;;;;;;1869858;76;26269;-34
2021/12/05 16:16:12;;;;;;;0.23;0.23;;;;;;;;;;1859279;75;26268;-34
2021/12/05 16:18:41;;;;;;;0.30;0.30;;;;;;;;;;1869241;75;26270;-34
2021/12/05 16:21:16;;;;;;;0.40;0.40;;;;;;;;;;1866433;75;26233;-34
2021/12/05 16:23:44;;;;;;;0.40;0.40;;;;;;;;;;1865608;76;26339;-34
2021/12/05 16:26:13;;;;;;;0.30;0.30;;;;;;;;;;1861389;76;26319;-34
2021/12/05 16:28:48;;;;;;;0.40;0.40;;;;;;;;;;1853811;75;26243;-34
2021/12/05 16:31:17;;;;;;;0.30;0.30;;;;;;;;;;1865500;76;26293;-34
2021/12/05 16:33:49;;;;;;;0.30;0.30;;;;;;;;;;1858147;76;26312;-34
2021/12/05 16:36:19;;;;;;;0.40;0.40;;;;;;;;;;1862696;76;26776;-34
2021/12/05 16:38:47;;;;;;;0.42;0.42;;;;;;;;;;1869147;76;26410;-34
2021/12/05 16:41:16;;;;;;;0.40;0.40;;;;;;;;;;1863796;76;26266;-34
2021/12/05 16:43:48;;;;;;;0.30;0.30;;;;;;;;;;1863739;76;26316;-34
2021/12/05 16:46:17;;;;;;;0.40;0.40;;;;;;;;;;1864107;76;26282;-34
2021/12/05 16:48:44;;;;;;;0.30;0.30;;;;;;;;;;1875362;76;26283;-34
2021/12/05 16:51:13;;;;;;;0.40;0.40;;;;;;;;;;1874523;76;26276;-34
2021/12/05 16:53:46;;;;;;;0.30;0.30;;;;;;;;;;1864915;75;26260;-35
2021/12/05 16:56:13;;;;;;;0.42;0.42;;;;;;;;;;1852891;75;26285;-34
2021/12/05 16:58:46;;;;;;;0.30;0.30;;;;;;;;;;1865537;76;26365;-34
2021/12/05 17:01:19;;;;;;;0.35;0.35;;;;;;;;;;1872250;75;26797;-34
2021/12/05 17:03:47;;;;;;;0.30;0.30;;;;;;;;;;1855157;75;26432;-34
2021/12/05 17:06:15;;;;;;;0.40;0.40;;;;;;;;;;1864670;76;26315;-34
2021/12/05 17:08:45;;;;;;;0.47;0.47;;;;;;;;;;1861898;76;26783;-34
2021/12/05 17:11:12;;;;;;;0.40;0.40;;;;;;;;;;1848228;76;26773;-35
2021/12/05 17:13:41;;;;;;;0.40;0.40;;;;;;;;;;1851324;76;26742;-34
2021/12/05 17:16:23;;;;;;;0.30;0.30;;;;;;;;;;1847550;76;26320;-35
2021/12/05 17:18:58;;;;;;;0.35;0.35;;;;;;;;;;1851353;76;26267;-34
2021/12/05 17:21:27;;;;;;;0.40;0.40;;;;;;;;;;1859703;76;26320;-34
2021/12/05 17:23:56;;;;;;;0.40;0.40;;;;;;;;;;1835746;76;26281;-34
2021/12/05 17:26:25;;;;;;;0.40;0.40;;;;;;;;;;1847940;76;26303;-35
2021/12/05 17:28:53;;;;;;;0.40;0.40;;;;;;;;;;1846792;76;26258;-34
2021/12/05 17:31:23;;;;;;;0.50;0.50;;;;;;;;;;1863473;76;26340;-34
2021/12/05 17:33:55;;;;;;;0.35;0.35;;;;;;;;;;1854180;76;26368;-34
2021/12/05 17:36:29;;;;;;;0.40;0.40;;;;;;;;;;1853604;76;26272;-35
2021/12/05 17:38:58;;;;;;;0.33;0.33;;;;;;;;;;1845614;76;26289;-34
2021/12/05 17:41:26;;;;;;;0.33;0.33;;;;;;;;;;1857048;76;26316;-34
2021/12/05 17:43:55;;;;;;;0.40;0.40;;;;;;;;;;1860408;76;26754;-34
2021/12/05 17:46:23;;;;;;;0.40;0.40;;;;;;;;;;1855063;76;26310;-34
2021/12/05 17:48:51;;;;;;;0.30;0.30;;;;;;;;;;1851977;76;26246;-34
2021/12/05 17:51:20;;;;;;;0.40;0.40;;;;;;;;;;1863476;76;26209;-34
2021/12/05 17:53:49;;;;;;;0.40;0.40;;;;;;;;;;1852087;76;26279;-34
2021/12/05 17:56:34;;;;;;;0.40;0.40;;;;;;;;;;1854105;76;26290;-34
2021/12/05 18:04:05;;;;;;;0.40;0.40;;;;;;;;;;1836084;76;26306;-34
2021/12/05 18:06:33;;;;;;;0.40;0.40;;;;;;;;;;1852897;76;26359;-34
2021/12/05 18:09:01;;;;;;;0.40;0.40;;;;;;;;;;1842530;76;26321;-34
2021/12/05 18:11:28;;;;;;;0.40;0.40;;;;;;;;;;1844656;76;26277;-34
2021/12/05 18:13:57;;;;;;;0.37;0.37;;;;;;;;;;1851646;76;26313;-34
2021/12/05 18:16:27;;;;;;;0.40;0.40;;;;;;;;;;1852197;76;26767;-34
2021/12/05 18:18:56;;;;;;;0.50;0.50;;;;;;;;;;1852009;76;27025;-35
2021/12/05 18:21:25;;;;;;;0.47;0.47;;;;;;;;;;1849661;76;26326;-34
2021/12/05 18:23:54;;;;;;;0.30;0.30;;;;;;;;;;1863354;76;26470;-33
2021/12/05 18:26:21;;;;;;;0.40;0.40;;;;;;;;;;1856746;76;26280;-33
2021/12/05 18:28:49;;;;;;;0.40;0.40;;;;;;;;;;1846405;76;26292;-33
2021/12/05 18:31:22;;;;;;;0.40;0.40;;;;;;;;;;1864181;76;26258;-33
2021/12/05 18:33:51;;;;;;;0.45;0.45;;;;;;;;;;1858447;76;26777;-33
2021/12/05 18:36:20;;;;;;;0.30;0.30;;;;;;;;;;1851353;76;26761;-33
2021/12/05 18:38:48;;;;;;;0.50;0.50;;;;;;;;;;1860248;76;26784;-33
2021/12/05 18:41:16;;;;;;;0.45;0.45;;;;;;;;;;1852205;77;26395;-33
2021/12/05 18:43:45;;;;;;;0.40;0.40;;;;;;;;;;1857651;76;26851;-34
2021/12/05 18:46:13;;;;;;;0.40;0.40;;;;;;;;;;1855764;76;26314;-33
2021/12/05 18:48:42;;;;;;;0.55;0.55;;;;;;;;;;1858457;76;26292;-33
2021/12/05 18:51:10;;;;;;;0.50;0.50;;;;;;;;;;1847077;76;26234;-33
2021/12/05 18:53:38;;;;;;;0.60;0.60;;;;;;;;;;1844766;76;26316;-33
2021/12/05 18:56:05;;;;;;;0.50;0.50;;;;;;;;;;1839219;76;26243;-34
2021/12/05 18:58:33;;;;;;;0.45;0.45;;;;;;;;;;1850351;76;26698;-33
2021/12/05 19:06:40;;;;;;;0.40;0.40;;;;;;;;;;1849657;76;26329;-34
2021/12/05 19:09:21;;;;;;;0.50;0.50;;;;;;;;;;1850763;76;26311;-34
2021/12/05 19:11:45;;;;;;;0.37;0.37;;;;;;;;;;1859529;76;26332;-34
2021/12/05 19:14:14;;;;;;;0.33;0.33;;;;;;;;;;1849696;76;26306;-34
2021/12/05 19:16:42;;;;;;;0.40;0.40;;;;;;;;;;1842469;76;26765;-34
2021/12/05 19:19:10;;;;;;;0.40;0.40;;;;;;;;;;1845744;76;26265;-34
2021/12/05 19:21:38;;;;;;;0.50;0.50;;;;;;;;;;1858670;76;26276;-34
2021/12/05 19:24:06;;;;;;;0.50;0.50;;;;;;;;;;1848782;76;26291;-34
2021/12/05 19:26:35;;;;;;;0.50;0.50;;;;;;;;;;1854012;76;27531;-34
2021/12/05 19:29:02;;;;;;;0.50;0.50;;;;;;;;;;1851788;76;26961;-34
2021/12/05 19:31:30;;;;;;;0.30;0.30;;;;;;;;;;1861354;76;26386;-34
2021/12/05 19:33:57;;;;;;;0.50;0.50;;;;;;;;;;1847311;76;26372;-34
2021/12/05 19:36:27;;;;;;;0.50;0.50;;;;;;;;;;1856555;76;26244;-34
2021/12/05 19:38:55;;;;;;;0.40;0.40;;;;;;;;;;1850036;76;26387;-34
2021/12/05 19:41:23;;;;;;;0.40;0.40;;;;;;;;;;1856446;76;26353;-34
2021/12/05 19:43:51;;;;;;;0.95;0.50;;;;;;;;;;1845876;76;26288;-34
2021/12/05 19:46:18;;;;;;;1.85;0.50;;;;;;;;;;1827620;76;26758;-34
2021/12/05 19:48:46;;;;;;;1.75;0.60;;;;;;;;;;1842536;76;26277;-34
2021/12/05 19:51:16;;;;;;;3.05;0.50;;;;;;;;;;1840688;76;26285;-34
2021/12/05 19:53:45;;;;;;;2.62;0.60;;;;;;;;;;1843056;76;26297;-34
2021/12/05 19:56:13;;;;;;;4.30;0.60;;;;;;;;;;1847486;76;26333;-34
2021/12/05 19:58:41;;;;;;;3.62;0.68;;;;;;;;;;1845092;76;26331;-34
2021/12/05 20:01:09;;;;;;;2.17;0.70;;;;;;;;;;1841479;76;26287;-34
2021/12/05 20:03:38;;;;;;;2.90;0.70;;;;;;;;;;1843098;75;26334;-34
2021/12/05 20:06:06;;;;;;;3.85;0.78;;;;;;;;;;1842326;76;26284;-34
2021/12/05 20:08:34;;;;;;;0.57;0.57;;;;;;;;;;1841975;76;26211;-34
2021/12/05 20:11:03;;;;;;;5.95;1.00;;;;;;;;;;1841851;76;26350;-34